createdAt,value
2017-10-02T12:22:20.044Z,24.7
2017-10-02T12:23:16.519Z,25
2017-10-02T12:24:17.354Z,25.4
2017-10-02T12:25:16.446Z,25.9
2017-10-02T12:26:18.029Z,26.4
2017-10-02T12:27:19.695Z,26.8
2017-10-02T12:28:17.328Z,27.2
2017-10-02T12:29:18.189Z,27.6
2017-10-02T12:30:16.847Z,27.9
2017-10-02T12:31:16.856Z,28.2
2017-10-02T12:32:16.405Z,28.5
2017-10-02T12:33:17.087Z,28.6
2017-10-02T12:34:17.546Z,28.8
2017-10-02T12:35:16.417Z,28.9
2017-10-02T12:36:17.236Z,29.1
2017-10-02T12:37:18.731Z,29.1
2017-10-02T12:38:18.211Z,29.2
2017-10-02T12:39:18.174Z,29.3
2017-10-02T12:40:16.307Z,29.3
2017-10-02T12:41:17.870Z,29.4
2017-10-02T12:42:18.708Z,29.4
2017-10-02T12:43:17.066Z,29.5
2017-10-02T12:44:16.299Z,29.5
2017-10-02T12:45:16.958Z,29.5
2017-10-02T12:46:17.627Z,29.5
2017-10-02T12:47:19.880Z,29.5
2017-10-02T12:48:19.336Z,29.5
2017-10-02T12:49:17.302Z,29.5
2017-10-02T12:50:16.633Z,29.5
2017-10-02T12:51:18.420Z,29.5
2017-10-02T12:52:17.345Z,29.6
2017-10-02T12:53:19.251Z,29.6
2017-10-02T12:54:18.506Z,29.6
2017-10-02T12:55:17.380Z,29.6
2017-10-02T12:56:18.896Z,29.6
2017-10-02T12:57:16.857Z,29.6
2017-10-02T12:58:19.348Z,29.7
2017-10-02T12:59:17.136Z,29.7
2017-10-02T13:00:17.940Z,29.8
2017-10-02T13:01:17.093Z,29.8
2017-10-02T13:02:18.332Z,29.9
2017-10-02T13:03:18.007Z,30
2017-10-02T13:04:18.748Z,30.1
2017-10-02T13:05:18.450Z,30
2017-10-02T13:06:17.252Z,30.3
2017-10-02T13:07:18.168Z,30.4
2017-10-02T13:08:17.377Z,30.4
2017-10-02T13:09:18.840Z,30.5
2017-10-02T13:10:18.961Z,30.6
2017-10-02T13:11:18.264Z,30.6
2017-10-02T13:12:19.573Z,30.7
2017-10-02T13:13:18.750Z,30.8
2017-10-02T13:14:18.328Z,30.8
2017-10-02T13:15:18.187Z,30.9
2017-10-02T13:16:17.939Z,30.9
2017-10-02T13:17:19.456Z,31
2017-10-02T13:18:19.332Z,31
2017-10-02T13:19:18.430Z,31
2017-10-02T13:20:18.884Z,31.1
2017-10-02T13:21:18.375Z,31.1
2017-10-02T13:22:18.215Z,31.1
2017-10-02T13:23:18.635Z,31.1
2017-10-02T13:24:19.715Z,31.2
2017-10-02T13:25:18.605Z,31.2
2017-10-02T13:26:19.234Z,31.2
2017-10-02T13:27:19.103Z,31.2
2017-10-02T13:28:19.387Z,31.2
2017-10-02T13:29:19.317Z,31.2
2017-10-02T13:30:19.839Z,31.2
2017-10-02T13:31:19.973Z,31.2
2017-10-02T13:32:18.967Z,31.2
2017-10-02T13:33:19.503Z,31.2
2017-10-02T13:34:19.364Z,31.2
2017-10-02T13:35:20.130Z,31.2
2017-10-02T13:36:20.960Z,31.2
2017-10-02T13:37:19.862Z,31.2
2017-10-02T13:38:19.299Z,31.2
2017-10-02T13:39:20.533Z,31.2
2017-10-02T13:40:21.091Z,31.2
2017-10-02T13:41:19.130Z,31.2
2017-10-02T13:42:20.592Z,31.1
2017-10-02T13:43:19.240Z,31.1
2017-10-02T13:44:20.771Z,31.1
2017-10-02T13:45:21.254Z,31.1
2017-10-02T13:46:20.813Z,31.1
2017-10-02T13:47:19.510Z,31.1
2017-10-02T13:48:19.733Z,31.1
2017-10-02T13:49:20.593Z,31
2017-10-02T13:50:20.742Z,31
2017-10-02T13:51:19.944Z,31
2017-10-02T13:52:19.998Z,31
2017-10-02T13:53:20.636Z,31
2017-10-02T13:54:21.817Z,31
2017-10-02T13:55:20.502Z,31
2017-10-02T13:56:19.987Z,31
2017-10-02T13:57:20.141Z,31
2017-10-02T13:58:20.815Z,31
2017-10-02T13:59:20.895Z,31
2017-10-02T14:00:21.473Z,30.9
2017-10-02T14:01:21.187Z,31
2017-10-02T14:02:21.674Z,30.9
2017-10-02T14:03:21.113Z,30.9
2017-10-02T14:04:20.583Z,30.9
2017-10-02T14:05:21.314Z,30.9
2017-10-02T14:06:21.259Z,30.9
2017-10-02T14:07:20.564Z,30.9
2017-10-02T14:08:20.734Z,30.9
2017-10-02T14:09:20.629Z,30.9
2017-10-02T14:10:20.862Z,30.9
2017-10-02T14:11:20.708Z,30.9
2017-10-02T14:12:20.913Z,30.9
2017-10-02T14:13:20.991Z,30.9
2017-10-02T14:14:21.059Z,30.9
2017-10-02T14:15:22.087Z,30.8
2017-10-02T14:16:22.743Z,30.8
2017-10-02T14:17:22.146Z,30.8
2017-10-02T14:18:23.025Z,30.8
2017-10-02T14:19:22.047Z,30.8
2017-10-02T14:20:22.636Z,30.8
2017-10-02T14:21:21.740Z,30.8
2017-10-02T14:22:21.472Z,30.8
2017-10-02T14:23:23.826Z,30.8
2017-10-02T14:24:22.818Z,30.8
2017-10-02T14:25:21.745Z,30.8
2017-10-02T14:26:22.928Z,30.8
2017-10-02T14:27:21.452Z,30.8
2017-10-02T14:28:21.685Z,30.8
2017-10-02T14:29:22.468Z,30.8
2017-10-02T14:30:23.212Z,30.8
2017-10-02T14:31:22.464Z,30.8
2017-10-02T14:32:22.503Z,30.8
2017-10-02T14:33:22.078Z,30.8
2017-10-02T14:34:22.314Z,30.7
2017-10-02T14:35:21.850Z,30.7
2017-10-02T14:36:21.875Z,30.7
2017-10-02T14:37:22.252Z,30.7
2017-10-02T14:38:22.027Z,30.7
2017-10-02T14:39:22.200Z,30.7
2017-10-02T14:40:22.678Z,30.7
2017-10-02T14:41:22.417Z,30.7
2017-10-02T14:42:23.679Z,30.7
2017-10-02T14:43:22.836Z,30.7
2017-10-02T14:44:23.416Z,30.7
2017-10-02T14:45:23.046Z,30.7
2017-10-02T14:46:26.635Z,30.7
2017-10-02T14:47:23.710Z,30.7
2017-10-02T14:48:23.285Z,30.7
2017-10-02T14:49:23.711Z,30.7
2017-10-02T14:50:25.089Z,30.7
2017-10-02T14:51:24.659Z,30.7
2017-10-02T14:52:23.125Z,30.7
2017-10-02T14:53:23.590Z,30.7
2017-10-02T14:54:23.274Z,30.7
2017-10-02T14:55:23.543Z,30.7
2017-10-02T14:56:24.776Z,30.7
2017-10-02T14:57:24.537Z,30.7
2017-10-02T14:58:23.855Z,30.7
2017-10-02T14:59:24.433Z,30.7
2017-10-02T15:00:23.308Z,30.6
2017-10-02T15:01:23.477Z,30.7
2017-10-02T15:02:23.508Z,30.7
2017-10-02T15:03:23.617Z,30.7
2017-10-02T15:04:24.928Z,30.6
2017-10-02T15:05:23.427Z,30.6
2017-10-02T15:06:23.689Z,30.7
2017-10-02T15:07:23.532Z,30.7
2017-10-02T15:08:24.191Z,30.7
2017-10-02T15:09:24.347Z,30.6
2017-10-02T15:10:23.598Z,30.6
2017-10-02T15:11:24.338Z,30.6
2017-10-02T15:12:24.650Z,30.6
2017-10-02T15:13:23.999Z,30.6
2017-10-02T15:14:24.038Z,30.6
2017-10-02T15:15:25.399Z,30.6
2017-10-02T15:16:24.191Z,30.6
2017-10-02T15:17:24.849Z,30.6
2017-10-02T15:18:24.307Z,30.6
2017-10-02T15:19:24.066Z,30.6
2017-10-02T15:20:24.185Z,30.6
2017-10-02T15:21:24.273Z,30.6
2017-10-02T15:22:24.616Z,30.6
2017-10-02T15:23:24.679Z,30.6
2017-10-02T15:24:26.468Z,30.6
2017-10-02T15:25:26.045Z,30.6
2017-10-02T15:26:25.669Z,30.6
2017-10-02T15:27:26.417Z,30.6
2017-10-02T15:28:25.380Z,30.6
2017-10-02T15:29:26.572Z,30.6
2017-10-02T15:30:26.240Z,30.6
2017-10-02T15:31:30.091Z,30.6
2017-10-02T15:32:26.358Z,30.6
2017-10-02T15:33:26.632Z,30.6
2017-10-02T15:34:26.649Z,30.6
2017-10-02T15:35:27.775Z,30.6
2017-10-02T15:36:25.922Z,30.6
2017-10-02T15:37:26.903Z,30.6
2017-10-02T15:38:25.915Z,30.6
2017-10-02T15:39:27.307Z,30.6
2017-10-02T15:40:26.619Z,30.6
2017-10-02T15:41:27.181Z,30.6
2017-10-02T15:42:27.342Z,30.6
2017-10-02T15:43:26.849Z,30.5
2017-10-02T15:44:26.485Z,30.6
2017-10-02T15:45:27.075Z,30.6
2017-10-02T15:46:27.840Z,30.6
2017-10-02T15:47:26.841Z,30.6
2017-10-02T15:48:29.240Z,30.6
2017-10-02T15:49:26.880Z,30.6
2017-10-02T15:50:26.683Z,30.6
2017-10-02T15:51:26.685Z,30.6
2017-10-02T15:52:28.057Z,30.6
2017-10-02T15:53:28.059Z,30.5
2017-10-02T15:54:27.224Z,30.6
2017-10-02T15:55:27.544Z,30.6
2017-10-02T15:56:26.662Z,30.6
2017-10-02T15:57:27.090Z,30.6
2017-10-02T15:58:26.863Z,30.6
2017-10-02T15:59:30.501Z,30.6
2017-10-02T16:00:26.288Z,30.6
2017-10-02T16:01:26.567Z,30.6
2017-10-02T16:02:26.578Z,30.6
2017-10-02T16:03:26.420Z,30.5
2017-10-02T16:04:26.461Z,30.6
2017-10-02T16:05:26.683Z,30.6
2017-10-02T16:06:26.610Z,30.6
2017-10-02T16:07:27.363Z,30.6
2017-10-02T16:08:28.608Z,30.6
2017-10-02T16:09:26.749Z,30.6
2017-10-02T16:10:30.680Z,30.6
2017-10-02T16:11:27.072Z,30.6
2017-10-02T16:12:26.964Z,30.5
2017-10-02T16:13:27.113Z,30.5
2017-10-02T16:14:27.966Z,30.5
2017-10-02T16:15:27.228Z,30.5
2017-10-02T16:16:27.324Z,30.5
2017-10-02T16:17:29.223Z,30.5
2017-10-02T16:18:27.165Z,30.5
2017-10-02T16:19:27.417Z,30.5
2017-10-02T16:20:28.224Z,30.5
2017-10-02T16:21:27.304Z,30.5
2017-10-02T16:22:28.901Z,30.5
2017-10-02T16:23:27.502Z,30.5
2017-10-02T16:24:27.426Z,30.5
2017-10-02T16:25:27.604Z,30.5
2017-10-02T16:26:27.866Z,30.5
2017-10-02T16:27:27.940Z,30.5
2017-10-02T16:28:27.749Z,30.5
2017-10-02T16:29:27.972Z,30.5
2017-10-02T16:30:28.038Z,30.5
2017-10-02T16:31:28.205Z,30.5
2017-10-02T16:32:28.680Z,30.5
2017-10-02T16:33:27.987Z,30.5
2017-10-02T16:34:28.041Z,30.5
2017-10-02T16:35:28.109Z,30.5
2017-10-02T16:36:28.455Z,30.5
2017-10-02T16:37:28.550Z,30.5
2017-10-02T16:38:29.041Z,30.5
2017-10-02T16:39:29.575Z,30.5
2017-10-02T16:40:29.447Z,30.5
2017-10-02T16:41:29.205Z,30.5
2017-10-02T16:42:28.574Z,30.5
2017-10-02T16:43:29.089Z,30.5
2017-10-02T16:44:29.694Z,30.5
2017-10-02T16:45:29.314Z,30.5
2017-10-02T16:46:28.950Z,30.5
2017-10-02T16:47:29.057Z,30.5
2017-10-02T16:48:29.090Z,30.5
2017-10-02T16:49:29.699Z,30.5
2017-10-02T16:50:29.134Z,30.5
2017-10-02T16:51:29.146Z,30.5
2017-10-02T16:52:29.037Z,30.5
2017-10-02T16:53:29.265Z,30.5
2017-10-02T16:54:29.075Z,30.5
2017-10-02T16:55:30.401Z,30.5
2017-10-02T16:56:29.222Z,30.5
2017-10-02T16:57:29.883Z,30.5
2017-10-02T16:58:29.590Z,30.5
2017-10-02T16:59:30.319Z,30.5
2017-10-02T17:00:29.466Z,30.5
2017-10-02T17:01:29.915Z,30.5
2017-10-02T17:02:29.550Z,30.5
2017-10-02T17:03:29.646Z,30.5
2017-10-02T17:04:29.889Z,30.5
2017-10-02T17:05:30.287Z,30.4
2017-10-02T17:06:29.907Z,30.4
2017-10-02T17:07:30.165Z,30.4
2017-10-02T17:08:29.771Z,30.4
2017-10-02T17:09:29.804Z,30.4
2017-10-02T17:10:30.103Z,30.4
2017-10-02T17:11:30.664Z,30.4
2017-10-02T17:12:29.981Z,30.4
2017-10-02T17:13:30.565Z,30.4
2017-10-02T17:14:30.279Z,30.4
2017-10-02T17:15:30.404Z,30.4
2017-10-02T17:16:30.095Z,30.4
2017-10-02T17:17:30.336Z,30.4
2017-10-02T17:18:30.327Z,30.4
2017-10-02T17:19:30.585Z,30.4
2017-10-02T17:20:30.476Z,30.4
2017-10-02T17:21:31.141Z,30.4
2017-10-02T17:22:30.477Z,30.4
2017-10-02T17:23:30.489Z,30.4
2017-10-02T17:24:30.846Z,30.4
2017-10-02T17:25:31.096Z,30.4
2017-10-02T17:26:30.684Z,30.4
2017-10-02T17:27:30.898Z,30.4
2017-10-02T17:28:30.832Z,30.4
2017-10-02T17:29:30.998Z,30.4
2017-10-02T17:30:31.070Z,30.4
2017-10-02T17:31:31.454Z,30.4
2017-10-02T17:32:31.051Z,30.4
2017-10-02T17:33:32.647Z,30.4
2017-10-02T17:34:31.291Z,30.4
2017-10-02T17:35:31.757Z,30.4
2017-10-02T17:36:31.823Z,30.4
2017-10-02T17:37:31.745Z,30.4
2017-10-02T17:38:31.512Z,30.4
2017-10-02T17:39:31.383Z,30.4
2017-10-02T17:40:31.628Z,30.4
2017-10-02T17:41:31.425Z,30.3
2017-10-02T17:42:31.479Z,30.3
2017-10-02T17:43:32.040Z,30.3
2017-10-02T17:44:31.641Z,30.3
2017-10-02T17:45:31.625Z,30.3
2017-10-02T17:46:31.721Z,30.3
2017-10-02T17:47:32.043Z,30.3
2017-10-02T17:48:32.084Z,30.3
2017-10-02T17:49:32.359Z,30.3
2017-10-02T17:50:32.069Z,30.3
2017-10-02T17:51:32.274Z,30.3
2017-10-02T17:52:32.337Z,30.3
2017-10-02T17:53:32.170Z,30.3
2017-10-02T17:54:32.296Z,30.3
2017-10-02T17:55:32.447Z,30.3
2017-10-02T17:56:32.453Z,30.3
2017-10-02T17:57:32.319Z,30.3
2017-10-02T17:58:32.996Z,30.3
2017-10-02T17:59:32.390Z,30.3
2017-10-02T18:00:33.354Z,30.3
2017-10-02T18:01:32.934Z,30.3
2017-10-02T18:02:32.682Z,30.3
2017-10-02T18:03:32.710Z,30.3
2017-10-02T18:04:32.772Z,30.3
2017-10-02T18:05:32.833Z,30.3
2017-10-02T18:06:32.681Z,30.3
2017-10-02T18:07:33.239Z,30.3
2017-10-02T18:08:32.798Z,30.3
2017-10-02T18:09:33.006Z,30.3
2017-10-02T18:10:33.050Z,30.3
2017-10-02T18:11:32.916Z,30.3
2017-10-02T18:12:33.193Z,30.3
2017-10-02T18:13:33.237Z,30.3
2017-10-02T18:14:32.974Z,30.3
2017-10-02T18:15:32.989Z,30.3
2017-10-02T18:16:33.016Z,30.3
2017-10-02T18:17:33.114Z,30.3
2017-10-02T18:18:33.128Z,30.2
2017-10-02T18:19:33.561Z,30.2
2017-10-02T18:20:33.154Z,30.2
2017-10-02T18:21:33.182Z,30.3
2017-10-02T18:22:33.443Z,30.2
2017-10-02T18:23:33.506Z,30.2
2017-10-02T18:24:34.288Z,30.2
2017-10-02T18:25:33.909Z,30.2
2017-10-02T18:26:33.529Z,30.2
2017-10-02T18:27:33.674Z,30.2
2017-10-02T18:28:34.431Z,30.2
2017-10-02T18:29:33.677Z,30.2
2017-10-02T18:30:33.799Z,30.2
2017-10-02T18:31:34.184Z,30.2
2017-10-02T18:32:33.718Z,30.2
2017-10-02T18:33:34.014Z,30.2
2017-10-02T18:34:34.090Z,30.2
2017-10-02T18:35:34.083Z,30.2
2017-10-02T18:36:34.123Z,30.2
2017-10-02T18:37:34.451Z,30.2
2017-10-02T18:38:34.053Z,30.2
2017-10-02T18:39:34.159Z,30.2
2017-10-02T18:40:34.113Z,30.2
2017-10-02T18:41:34.119Z,30.2
2017-10-02T18:42:34.412Z,30.2
2017-10-02T18:43:34.592Z,30.2
2017-10-02T18:44:35.593Z,30.2
2017-10-02T18:45:34.323Z,30.2
2017-10-02T18:46:34.423Z,30.2
2017-10-02T18:47:34.390Z,30.2
2017-10-02T18:48:34.431Z,30.2
2017-10-02T18:49:34.944Z,30.2
2017-10-02T18:50:34.533Z,30.2
2017-10-02T18:51:34.716Z,30.2
2017-10-02T18:52:34.804Z,30.2
2017-10-02T18:53:34.669Z,30.2
2017-10-02T18:54:34.891Z,30.2
2017-10-02T18:55:35.184Z,30.2
2017-10-02T18:56:34.860Z,30.2
2017-10-02T18:57:34.939Z,30.2
2017-10-02T18:58:35.264Z,30.2
2017-10-02T18:59:35.093Z,30.2
2017-10-02T19:00:35.171Z,30.2
2017-10-02T19:01:35.545Z,30.2
2017-10-02T19:02:35.993Z,30.2
2017-10-02T19:03:35.425Z,30.2
2017-10-02T19:04:35.626Z,30.2
2017-10-02T19:05:35.675Z,30.1
2017-10-02T19:06:35.602Z,30.2
2017-10-02T19:07:35.866Z,30.1
2017-10-02T19:08:35.870Z,30.2
2017-10-02T19:09:35.998Z,30.2
2017-10-02T19:10:35.781Z,30.2
2017-10-02T19:11:35.902Z,30.1
2017-10-02T19:12:36.053Z,30.2
2017-10-02T19:13:36.203Z,30.2
2017-10-02T19:14:36.192Z,30.2
2017-10-02T19:15:36.059Z,30.1
2017-10-02T19:16:36.378Z,30.1
2017-10-02T19:17:36.173Z,30.1
2017-10-02T19:18:36.263Z,30.1
2017-10-02T19:19:36.802Z,30.1
2017-10-02T19:20:36.539Z,30.1
2017-10-02T19:21:36.657Z,30.1
2017-10-02T19:22:36.534Z,30.1
2017-10-02T19:23:36.811Z,30.1
2017-10-02T19:24:37.384Z,30.1
2017-10-02T19:25:36.916Z,30.1
2017-10-02T19:26:37.472Z,30.1
2017-10-02T19:27:36.918Z,30.1
2017-10-02T19:28:37.002Z,30.1
2017-10-02T19:29:37.092Z,30.1
2017-10-02T19:30:37.129Z,30.1
2017-10-02T19:31:37.401Z,30.1
2017-10-02T19:32:37.604Z,30.1
2017-10-02T19:33:37.053Z,30.1
2017-10-02T19:34:37.205Z,30.1
2017-10-02T19:35:37.073Z,30.1
2017-10-02T19:36:37.273Z,30.1
2017-10-02T19:37:37.583Z,30.1
2017-10-02T19:38:37.229Z,30.1
2017-10-02T19:39:37.419Z,30.1
2017-10-02T19:40:37.476Z,30.1
2017-10-02T19:41:37.545Z,30.1
2017-10-02T19:42:37.414Z,30.1
2017-10-02T19:43:37.764Z,30.1
2017-10-02T19:44:38.383Z,30.1
2017-10-02T19:45:37.594Z,30.1
2017-10-02T19:46:37.632Z,30.1
2017-10-02T19:47:37.626Z,30.1
2017-10-02T19:48:37.716Z,30.1
2017-10-02T19:49:38.255Z,30.1
2017-10-02T19:50:37.877Z,30.1
2017-10-02T19:51:37.881Z,30.1
2017-10-02T19:52:38.100Z,30.1
2017-10-02T19:53:37.977Z,30.1
2017-10-02T19:54:38.019Z,30.1
2017-10-02T19:55:38.349Z,30.1
2017-10-02T19:56:38.111Z,30.1
2017-10-02T19:57:38.155Z,30.1
2017-10-02T19:58:38.217Z,30.1
2017-10-02T19:59:38.475Z,30.1
2017-10-02T20:00:38.535Z,30.1
2017-10-02T20:01:38.847Z,30.1
2017-10-02T20:02:38.555Z,30.1
2017-10-02T20:03:38.644Z,30.1
2017-10-02T20:04:38.499Z,30.1
2017-10-02T20:05:38.572Z,30.1
2017-10-02T20:06:38.893Z,30.1
2017-10-02T20:07:39.201Z,30.1
2017-10-02T20:08:39.004Z,30.1
2017-10-02T20:09:39.075Z,30.1
2017-10-02T20:10:38.974Z,30.1
2017-10-02T20:11:39.021Z,30
2017-10-02T20:12:39.221Z,30
2017-10-02T20:13:39.545Z,30
2017-10-02T20:14:39.311Z,30.1
2017-10-02T20:15:39.190Z,30.1
2017-10-02T20:16:39.411Z,30.1
2017-10-02T20:17:39.464Z,30.1
2017-10-02T20:18:39.486Z,30
2017-10-02T20:19:39.615Z,30
2017-10-02T20:20:39.625Z,30.1
2017-10-02T20:21:39.523Z,30.1
2017-10-02T20:22:39.599Z,30.1
2017-10-02T20:23:39.636Z,30.1
2017-10-02T20:24:39.722Z,30
2017-10-02T20:25:40.294Z,30
2017-10-02T20:26:39.829Z,30
2017-10-02T20:27:40.029Z,30
2017-10-02T20:28:40.095Z,30
2017-10-02T20:29:39.998Z,30
2017-10-02T20:30:40.012Z,30.1
2017-10-02T20:31:40.449Z,30
2017-10-02T20:32:40.246Z,30
2017-10-02T20:33:40.123Z,30
2017-10-02T20:34:40.122Z,30.1
2017-10-02T20:35:40.253Z,30.1
2017-10-02T20:36:40.262Z,30.1
2017-10-02T20:37:40.838Z,30.1
2017-10-02T20:38:40.478Z,30.1
2017-10-02T20:39:40.554Z,30
2017-10-02T20:40:40.579Z,30
2017-10-02T20:41:40.638Z,30
2017-10-02T20:42:40.749Z,30
2017-10-02T20:43:41.072Z,30
2017-10-02T20:44:40.823Z,30
2017-10-02T20:45:40.653Z,30
2017-10-02T20:46:40.846Z,30
2017-10-02T20:47:40.827Z,30
2017-10-02T20:48:40.888Z,30
2017-10-02T20:49:41.065Z,30
2017-10-02T20:50:41.122Z,30
2017-10-02T20:51:41.052Z,30.1
2017-10-02T20:52:40.903Z,30.1
2017-10-02T20:53:41.107Z,30.1
2017-10-02T20:54:40.956Z,30.1
2017-10-02T20:55:41.337Z,30.1
2017-10-02T20:56:41.776Z,30
2017-10-02T20:57:41.199Z,30
2017-10-02T20:58:41.231Z,30
2017-10-02T20:59:41.364Z,30
2017-10-02T21:00:41.309Z,30
2017-10-02T21:01:41.593Z,30
2017-10-02T21:02:41.425Z,30
2017-10-02T21:03:41.460Z,30
2017-10-02T21:04:41.477Z,30
2017-10-02T21:05:41.670Z,30
2017-10-02T21:06:41.568Z,30
2017-10-02T21:07:42.111Z,30
2017-10-02T21:08:41.824Z,30
2017-10-02T21:09:41.680Z,30
2017-10-02T21:10:41.687Z,30
2017-10-02T21:11:41.892Z,30
2017-10-02T21:12:41.805Z,30
2017-10-02T21:13:42.246Z,30
2017-10-02T21:14:41.889Z,30
2017-10-02T21:15:41.976Z,30
2017-10-02T21:16:42.170Z,30
2017-10-02T21:17:42.088Z,30
2017-10-02T21:18:42.290Z,30
2017-10-02T21:19:42.522Z,30
2017-10-02T21:20:42.423Z,30
2017-10-02T21:21:42.287Z,30
2017-10-02T21:22:42.473Z,30
2017-10-02T21:23:42.334Z,29.9
2017-10-02T21:24:42.574Z,30
2017-10-02T21:25:42.656Z,30
2017-10-02T21:26:42.642Z,30
2017-10-02T21:27:42.697Z,30
2017-10-02T21:28:42.592Z,30
2017-10-02T21:29:42.788Z,29.9
2017-10-02T21:30:42.745Z,29.9
2017-10-02T21:31:43.036Z,29.9
2017-10-02T21:32:42.861Z,29.9
2017-10-02T21:33:42.926Z,29.9
2017-10-02T21:34:43.159Z,29.9
2017-10-02T21:35:43.011Z,29.9
2017-10-02T21:36:43.323Z,29.9
2017-10-02T21:37:43.454Z,29.9
2017-10-02T21:38:43.396Z,29.9
2017-10-02T21:39:43.453Z,29.9
2017-10-02T21:40:43.480Z,29.9
2017-10-02T21:41:43.480Z,29.9
2017-10-02T21:42:43.453Z,29.9
2017-10-02T21:43:43.790Z,29.9
2017-10-02T21:44:43.473Z,29.9
2017-10-02T21:45:43.789Z,29.9
2017-10-02T21:46:43.889Z,29.9
2017-10-02T21:47:43.712Z,29.9
2017-10-02T21:48:44.011Z,29.9
2017-10-02T21:49:44.021Z,29.9
2017-10-02T21:50:43.890Z,29.9
2017-10-02T21:51:44.189Z,29.9
2017-10-02T21:52:44.094Z,29.9
2017-10-02T21:53:44.093Z,29.9
2017-10-02T21:54:44.156Z,29.9
2017-10-02T21:55:44.348Z,29.9
2017-10-02T21:56:44.246Z,29.9
2017-10-02T21:57:44.403Z,29.9
2017-10-02T21:58:44.450Z,29.9
2017-10-02T21:59:44.497Z,29.9
2017-10-02T22:00:44.389Z,29.9
2017-10-02T22:01:44.442Z,29.9
2017-10-02T22:02:44.629Z,29.9
2017-10-02T22:03:44.447Z,29.9
2017-10-02T22:04:45.211Z,29.9
2017-10-02T22:05:44.664Z,29.9
2017-10-02T22:06:44.667Z,29.9
2017-10-02T22:07:44.754Z,29.9
2017-10-02T22:08:44.926Z,29.9
2017-10-02T22:09:44.963Z,29.8
2017-10-02T22:10:45.002Z,29.8
2017-10-02T22:11:45.036Z,29.9
2017-10-02T22:12:45.074Z,29.8
2017-10-02T22:13:44.981Z,29.8
2017-10-02T22:14:45.911Z,29.8
2017-10-02T22:15:46.732Z,29.8
2017-10-02T22:16:45.006Z,29.8
2017-10-02T22:17:45.123Z,29.8
2017-10-02T22:18:46.073Z,29.9
2017-10-02T22:19:46.055Z,29.9
2017-10-02T22:20:45.505Z,29.8
2017-10-02T22:21:45.421Z,29.8
2017-10-02T22:22:45.466Z,29.9
2017-10-02T22:23:46.910Z,29.8
2017-10-02T22:24:45.525Z,29.8
2017-10-02T22:25:45.618Z,29.9
2017-10-02T22:26:45.690Z,29.9
2017-10-02T22:27:45.750Z,29.9
2017-10-02T22:28:45.932Z,29.9
2017-10-02T22:29:45.797Z,29.8
2017-10-02T22:30:46.094Z,29.8
2017-10-02T22:31:45.962Z,29.8
2017-10-02T22:32:46.082Z,29.8
2017-10-02T22:33:46.369Z,29.8
2017-10-02T22:34:46.340Z,29.8
2017-10-02T22:35:46.215Z,29.8
2017-10-02T22:36:46.264Z,29.8
2017-10-02T22:37:46.351Z,29.8
2017-10-02T22:38:46.356Z,29.8
2017-10-02T22:39:46.365Z,29.8
2017-10-02T22:40:46.683Z,29.8
2017-10-02T22:41:46.734Z,29.8
2017-10-02T22:42:46.590Z,29.8
2017-10-02T22:43:46.861Z,29.8
2017-10-02T22:44:46.730Z,29.8
2017-10-02T22:45:46.815Z,29.8
2017-10-02T22:46:47.084Z,29.8
2017-10-02T22:47:47.149Z,29.8
2017-10-02T22:48:47.208Z,29.8
2017-10-02T22:49:47.085Z,29.8
2017-10-02T22:50:47.322Z,29.8
2017-10-02T22:51:47.195Z,29.8
2017-10-02T22:52:47.190Z,29.8
2017-10-02T22:53:47.446Z,29.8
2017-10-02T22:54:47.326Z,29.8
2017-10-02T22:55:47.519Z,29.7
2017-10-02T22:56:47.604Z,29.8
2017-10-02T22:57:47.461Z,29.8
2017-10-02T22:58:47.746Z,29.8
2017-10-02T22:59:48.443Z,29.8
2017-10-02T23:00:47.943Z,29.8
2017-10-02T23:01:48.009Z,29.8
2017-10-02T23:02:48.008Z,29.8
2017-10-02T23:03:47.885Z,29.8
2017-10-02T23:04:47.871Z,29.8
2017-10-02T23:05:48.145Z,29.8
2017-10-02T23:06:48.171Z,29.8
2017-10-02T23:07:48.050Z,29.8
2017-10-02T23:08:48.249Z,29.8
2017-10-02T23:09:48.122Z,29.8
2017-10-02T23:10:48.197Z,29.8
2017-10-02T23:11:48.335Z,29.8
2017-10-02T23:12:48.342Z,29.8
2017-10-02T23:13:48.545Z,29.8
2017-10-02T23:14:48.597Z,29.8
2017-10-02T23:15:48.647Z,29.8
2017-10-02T23:16:48.913Z,29.8
2017-10-02T23:17:48.716Z,29.8
2017-10-02T23:18:48.603Z,29.8
2017-10-02T23:19:48.643Z,29.8
2017-10-02T23:20:48.741Z,29.8
2017-10-02T23:21:48.913Z,29.8
2017-10-02T23:22:48.876Z,29.8
2017-10-02T23:23:48.740Z,29.8
2017-10-02T23:24:48.966Z,29.8
2017-10-02T23:25:48.794Z,29.8
2017-10-02T23:26:48.914Z,29.7
2017-10-02T23:27:49.104Z,29.7
2017-10-02T23:28:49.601Z,29.8
2017-10-02T23:29:49.190Z,29.8
2017-10-02T23:30:49.718Z,29.8
2017-10-02T23:31:49.944Z,29.8
2017-10-02T23:32:49.402Z,29.8
2017-10-02T23:33:49.959Z,29.7
2017-10-02T23:34:49.967Z,29.7
2017-10-02T23:35:50.229Z,29.8
2017-10-02T23:36:49.406Z,29.7
2017-10-02T23:37:49.463Z,29.7
2017-10-02T23:38:49.533Z,29.7
2017-10-02T23:39:49.528Z,29.7
2017-10-02T23:40:50.246Z,29.8
2017-10-02T23:41:49.829Z,29.8
2017-10-02T23:42:50.543Z,29.7
2017-10-02T23:43:49.911Z,29.8
2017-10-02T23:44:49.810Z,29.7
2017-10-02T23:45:50.028Z,29.7
2017-10-02T23:46:50.364Z,29.7
2017-10-02T23:47:49.850Z,29.7
2017-10-02T23:48:49.950Z,29.7
2017-10-02T23:49:49.992Z,29.7
2017-10-02T23:50:50.194Z,29.7
2017-10-02T23:51:50.053Z,29.7
2017-10-02T23:52:50.333Z,29.7
2017-10-02T23:53:50.156Z,29.7
2017-10-02T23:54:50.311Z,29.7
2017-10-02T23:55:50.506Z,29.7
2017-10-02T23:56:50.447Z,29.7
2017-10-02T23:57:51.316Z,29.7
2017-10-02T23:58:50.511Z,29.7
2017-10-02T23:59:50.527Z,29.7
